Time;durP1;ratioP1;P1;durP2;ratioP2;P2;SDS_P1;SDS_P2;PMS_P1;PMS_P2;Temp;Humidity;BMP_temperature;BMP_pressure;BME280_temperature;BME280_humidity;BME280_pressure;Samples;Min_cycle;Max_cycle;Signal;HPM_P1;HPM_P2
2023/03/07 00:02:21;;;;;;;0.13;0.13;;;4.90;99.90;;;;;;5027699;28;20051;-63
2023/03/07 00:04:47;;;;;;;0.10;0.10;;;4.80;99.90;;;;;;5029017;28;20040;-63
2023/03/07 00:07:13;;;;;;;0.10;0.10;;;4.80;99.90;;;;;;5027544;28;20042;-63
2023/03/07 00:09:38;;;;;;;0.10;0.10;;;4.80;99.90;;;;;;5028769;28;20052;-61
2023/03/07 00:12:05;;;;;;;0.30;0.30;;;4.80;99.90;;;;;;5027113;28;20064;-63
2023/03/07 00:14:31;;;;;;;0.00;0.00;;;4.80;99.90;;;;;;5027794;28;20072;-64
2023/03/07 00:16:57;;;;;;;0.47;0.47;;;4.80;99.90;;;;;;5027278;28;20507;-63
2023/03/07 00:19:22;;;;;;;0.10;0.10;;;4.80;99.90;;;;;;5003614;28;20041;-63
2023/03/07 00:21:48;;;;;;;0.10;0.10;;;4.80;99.90;;;;;;5028098;28;20107;-63
2023/03/07 00:24:14;;;;;;;0.10;0.10;;;4.80;99.90;;;;;;5027756;28;20073;-63
2023/03/07 00:26:39;;;;;;;0.10;0.10;;;4.80;99.90;;;;;;5027602;28;20041;-63
2023/03/07 00:29:09;;;;;;;0.10;0.10;;;4.80;99.90;;;;;;5007373;28;20616;-63
2023/03/07 00:31:35;;;;;;;0.10;0.10;;;4.80;99.90;;;;;;5028036;28;20143;-63
2023/03/07 00:34:02;;;;;;;0.10;0.10;;;4.80;99.90;;;;;;5010223;28;20041;-63
2023/03/07 00:36:28;;;;;;;0.10;0.10;;;4.80;99.90;;;;;;5026329;28;20079;-63
2023/03/07 00:38:54;;;;;;;0.10;0.10;;;4.80;99.90;;;;;;5028159;28;20657;-63
2023/03/07 00:41:25;;;;;;;0.47;0.47;;;4.80;99.90;;;;;;5006202;28;20598;-63
2023/03/07 00:43:51;;;;;;;0.10;0.10;;;4.80;99.90;;;;;;5004020;28;20076;-63
2023/03/07 00:46:19;;;;;;;0.10;0.10;;;4.80;99.90;;;;;;5007134;28;20046;-63
2023/03/07 00:48:45;;;;;;;0.10;0.10;;;4.80;99.90;;;;;;5007481;28;20088;-63
2023/03/07 00:51:13;;;;;;;0.10;0.10;;;4.80;99.90;;;;;;5007058;28;20437;-63
2023/03/07 00:53:39;;;;;;;0.10;0.10;;;4.80;99.90;;;;;;5008468;28;20054;-63
2023/03/07 00:56:26;;;;;;;0.20;0.20;;;4.80;99.90;;;;;;5006145;28;20045;-64
2023/03/07 00:58:52;;;;;;;0.17;0.17;;;4.80;99.90;;;;;;5006266;28;20581;-63
2023/03/07 01:01:22;;;;;;;0.10;0.10;;;4.80;99.90;;;;;;5007843;28;20046;-63
2023/03/07 01:03:54;;;;;;;1.10;1.10;;;4.80;99.90;;;;;;5007280;28;20057;-63
2023/03/07 01:06:27;;;;;;;0.10;0.10;;;4.80;99.90;;;;;;5007014;28;20096;-63
2023/03/07 01:08:54;;;;;;;0.10;0.10;;;4.80;99.90;;;;;;5007853;28;20068;-63
2023/03/07 01:11:20;;;;;;;0.10;0.10;;;4.80;99.90;;;;;;5006928;28;20379;-63
2023/03/07 01:13:45;;;;;;;0.10;0.10;;;4.80;99.90;;;;;;5008444;28;20141;-63
2023/03/07 01:16:16;;;;;;;0.10;0.10;;;4.80;99.90;;;;;;5005869;28;20041;-63
2023/03/07 01:18:42;;;;;;;0.08;0.08;;;4.80;99.90;;;;;;5005925;28;20073;-63
2023/03/07 01:21:19;;;;;;;0.10;0.10;;;4.70;99.90;;;;;;5004389;28;20041;-63
2023/03/07 01:23:45;;;;;;;0.75;0.75;;;4.70;99.90;;;;;;5007539;28;20057;-63
2023/03/07 01:26:13;;;;;;;0.10;0.10;;;4.70;99.90;;;;;;5007286;28;20034;-63
2023/03/07 01:28:39;;;;;;;0.10;0.10;;;4.60;99.90;;;;;;5007296;28;20507;-63
2023/03/07 01:31:04;;;;;;;0.10;0.10;;;4.60;99.90;;;;;;5007069;28;20038;-63
2023/03/07 01:33:30;;;;;;;0.10;0.10;;;4.50;99.90;;;;;;5006072;28;20046;-63
2023/03/07 01:35:55;;;;;;;0.10;0.10;;;4.60;99.90;;;;;;5005874;28;20044;-63
2023/03/07 01:38:21;;;;;;;0.20;0.20;;;4.50;99.90;;;;;;5007565;28;20042;-63
2023/03/07 01:40:46;;;;;;;0.10;0.10;;;4.60;99.90;;;;;;5021008;28;20067;-63
2023/03/07 01:43:25;;;;;;;0.10;0.10;;;4.50;99.90;;;;;;5026854;28;20060;-63
2023/03/07 01:46:19;;;;;;;0.10;0.10;;;4.60;99.90;;;;;;5026345;28;20045;-63
2023/03/07 01:48:56;;;;;;;0.10;0.10;;;4.60;99.90;;;;;;5016821;28;20060;-63
2023/03/07 01:51:22;;;;;;;0.10;0.10;;;4.60;99.90;;;;;;5025752;28;20048;-62
2023/03/07 01:53:50;;;;;;;1.17;0.95;;;4.50;99.90;;;;;;5027471;28;20128;-63
2023/03/07 01:56:17;;;;;;;4.25;2.42;;;4.60;99.90;;;;;;5026652;28;20551;-63
2023/03/07 01:58:44;;;;;;;0.10;0.10;;;4.60;99.90;;;;;;5026887;28;20092;-63
2023/03/07 02:01:12;;;;;;;0.10;0.10;;;4.60;99.90;;;;;;5026071;28;20049;-63
2023/03/07 02:03:45;;;;;;;0.10;0.10;;;4.60;99.90;;;;;;5027534;28;20053;-63
2023/03/07 02:06:11;;;;;;;0.05;0.05;;;4.70;99.90;;;;;;5025613;28;20303;-63
2023/03/07 02:08:38;;;;;;;0.35;0.35;;;4.60;99.90;;;;;;5025608;28;20096;-63
2023/03/07 02:11:05;;;;;;;0.10;0.10;;;4.60;99.90;;;;;;5026053;28;20049;-63
2023/03/07 02:13:31;;;;;;;0.08;0.08;;;4.60;99.90;;;;;;5025818;28;20052;-63
2023/03/07 02:16:00;;;;;;;0.10;0.10;;;4.60;99.90;;;;;;5026670;28;20396;-63
2023/03/07 02:18:30;;;;;;;0.10;0.10;;;4.60;99.90;;;;;;5030896;28;20184;-63
2023/03/07 02:21:33;;;;;;;0.10;0.10;;;4.50;99.90;;;;;;5028331;28;20136;-63
2023/03/07 02:24:31;;;;;;;0.10;0.10;;;4.40;99.90;;;;;;5030643;28;20037;-63
2023/03/07 02:26:58;;;;;;;0.10;0.10;;;4.40;99.90;;;;;;5028401;28;20485;-63
2023/03/07 02:29:23;;;;;;;0.10;0.10;;;4.40;99.90;;;;;;5029208;28;20132;-63
2023/03/07 02:31:49;;;;;;;0.10;0.10;;;4.30;99.90;;;;;;5030205;28;20122;-63
2023/03/07 02:34:21;;;;;;;0.10;0.10;;;4.30;99.90;;;;;;5029867;28;20049;-63
2023/03/07 02:36:48;;;;;;;0.10;0.10;;;4.30;99.90;;;;;;5029598;28;20511;-63
2023/03/07 02:39:14;;;;;;;0.10;0.10;;;4.30;99.90;;;;;;5028848;28;20513;-63
2023/03/07 02:41:40;;;;;;;0.10;0.10;;;4.30;99.90;;;;;;5029189;28;20046;-63
2023/03/07 02:44:06;;;;;;;0.10;0.10;;;4.30;99.90;;;;;;5029123;28;20084;-63
2023/03/07 02:46:32;;;;;;;0.10;0.10;;;4.30;99.90;;;;;;5029354;28;20464;-63
2023/03/07 02:48:57;;;;;;;2.17;1.52;;;4.30;99.90;;;;;;5027180;28;20064;-63
2023/03/07 02:51:23;;;;;;;0.10;0.10;;;4.30;99.90;;;;;;5028953;28;20145;-63
2023/03/07 02:53:48;;;;;;;0.10;0.10;;;4.30;99.90;;;;;;5029843;28;20049;-63
2023/03/07 02:56:14;;;;;;;0.10;0.10;;;4.30;99.90;;;;;;5029046;28;20077;-63
2023/03/07 02:58:39;;;;;;;0.70;0.70;;;4.30;99.90;;;;;;5028756;28;20934;-62
2023/03/07 03:01:05;;;;;;;0.10;0.10;;;4.30;99.90;;;;;;5029513;28;20038;-63
2023/03/07 03:03:31;;;;;;;0.10;0.10;;;4.30;99.90;;;;;;5011586;28;20132;-63
2023/03/07 03:05:57;;;;;;;0.88;0.88;;;4.20;99.90;;;;;;5027182;28;20177;-62
2023/03/07 03:08:22;;;;;;;0.10;0.10;;;4.20;99.90;;;;;;5029555;28;20053;-63
2023/03/07 03:10:57;;;;;;;0.35;0.35;;;4.20;99.90;;;;;;5027624;28;20095;-63
2023/03/07 03:13:22;;;;;;;0.10;0.10;;;4.20;99.90;;;;;;5027389;28;20049;-62
2023/03/07 03:15:48;;;;;;;0.10;0.10;;;4.10;99.90;;;;;;5029990;28;20038;-63
2023/03/07 03:18:14;;;;;;;0.10;0.10;;;4.10;99.90;;;;;;5027995;28;20038;-63
2023/03/07 03:20:41;;;;;;;6.63;1.17;;;4.20;99.90;;;;;;5027821;28;20396;-62
2023/03/07 03:23:06;;;;;;;0.10;0.10;;;4.10;99.90;;;;;;5010440;28;20095;-62
2023/03/07 03:25:32;;;;;;;0.15;0.15;;;4.10;99.90;;;;;;5028216;28;20041;-63
2023/03/07 03:27:57;;;;;;;0.50;0.50;;;4.10;99.90;;;;;;5029244;28;20048;-62
2023/03/07 03:30:23;;;;;;;0.57;0.57;;;4.10;99.90;;;;;;5028318;28;20057;-62
2023/03/07 03:32:49;;;;;;;10.13;2.30;;;4.10;99.90;;;;;;5028500;28;20087;-63
2023/03/07 03:35:14;;;;;;;0.20;0.20;;;4.10;99.90;;;;;;5027981;28;20906;-62
2023/03/07 03:37:40;;;;;;;0.17;0.17;;;4.10;99.90;;;;;;5028510;28;20037;-63
2023/03/07 03:40:13;;;;;;;0.10;0.10;;;4.10;99.90;;;;;;5027698;28;20413;-62
2023/03/07 03:42:40;;;;;;;0.20;0.20;;;4.10;99.90;;;;;;5027310;28;20484;-62
2023/03/07 03:45:07;;;;;;;0.10;0.10;;;4.10;99.90;;;;;;5027853;28;20044;-63
2023/03/07 03:47:32;;;;;;;0.10;0.10;;;4.10;99.90;;;;;;5027883;28;20033;-62
2023/03/07 03:49:58;;;;;;;0.00;0.00;;;4.10;99.90;;;;;;5028799;28;20041;-63
2023/03/07 03:52:23;;;;;;;0.10;0.10;;;4.20;99.90;;;;;;5028283;28;20045;-62
2023/03/07 03:54:49;;;;;;;1.33;1.23;;;4.20;99.90;;;;;;5028343;28;20637;-63
2023/03/07 03:57:16;;;;;;;0.45;0.45;;;4.30;99.90;;;;;;5027235;28;20041;-62
2023/03/07 03:59:42;;;;;;;0.10;0.10;;;4.30;99.90;;;;;;5027461;28;20052;-62
2023/03/07 04:02:08;;;;;;;0.10;0.10;;;4.30;99.90;;;;;;5027911;28;20033;-63
2023/03/07 04:04:34;;;;;;;0.10;0.10;;;4.30;99.90;;;;;;5028488;28;20048;-62
2023/03/07 04:07:00;;;;;;;0.10;0.10;;;4.30;99.90;;;;;;5027638;28;20584;-63
2023/03/07 04:09:25;;;;;;;0.10;0.10;;;4.30;99.90;;;;;;5027268;28;20132;-63
2023/03/07 04:11:51;;;;;;;0.10;0.10;;;4.20;99.90;;;;;;5027488;28;20176;-62
2023/03/07 04:14:16;;;;;;;0.10;0.10;;;4.20;99.90;;;;;;5027803;28;20060;-62
2023/03/07 04:16:42;;;;;;;0.10;0.10;;;4.30;99.90;;;;;;5027837;28;20044;-62
2023/03/07 04:19:11;;;;;;;0.10;0.10;;;4.20;99.90;;;;;;5024447;28;20135;-62
2023/03/07 04:21:38;;;;;;;0.10;0.10;;;4.20;99.90;;;;;;5020468;28;20069;-62
2023/03/07 04:24:05;;;;;;;0.10;0.10;;;4.20;99.90;;;;;;5027073;28;20489;-62
2023/03/07 04:26:31;;;;;;;0.40;0.40;;;4.20;99.90;;;;;;5010082;28;20135;-62
2023/03/07 04:28:57;;;;;;;0.10;0.10;;;4.20;99.90;;;;;;5027085;28;20065;-62
2023/03/07 04:31:25;;;;;;;0.10;0.10;;;4.20;99.90;;;;;;5027395;28;20049;-62
2023/03/07 04:33:52;;;;;;;0.10;0.10;;;4.20;99.90;;;;;;5010151;28;20064;-62
2023/03/07 04:36:18;;;;;;;0.10;0.10;;;4.20;99.90;;;;;;5027796;28;20042;-62
2023/03/07 04:38:45;;;;;;;0.10;0.10;;;4.20;99.90;;;;;;5025893;28;20061;-62
2023/03/07 04:41:17;;;;;;;0.10;0.10;;;4.20;99.90;;;;;;5021429;28;20572;-62
2023/03/07 04:43:43;;;;;;;0.10;0.10;;;4.20;99.90;;;;;;5027355;28;20113;-63
2023/03/07 04:46:10;;;;;;;1.15;1.15;;;4.10;99.90;;;;;;5007888;28;20498;-62
2023/03/07 04:48:36;;;;;;;0.15;0.15;;;4.10;99.90;;;;;;5009478;28;20056;-63
2023/03/07 04:51:02;;;;;;;0.10;0.10;;;4.10;99.90;;;;;;5026824;28;20041;-62
2023/03/07 04:53:27;;;;;;;0.10;0.10;;;4.10;99.90;;;;;;5027693;28;20099;-62
2023/03/07 04:56:05;;;;;;;0.10;0.10;;;4.20;99.90;;;;;;5026602;28;20095;-62
2023/03/07 04:58:31;;;;;;;0.10;0.10;;;4.10;99.90;;;;;;5027246;28;20065;-62
2023/03/07 05:00:57;;;;;;;0.60;0.60;;;4.20;99.90;;;;;;5026925;28;20045;-62
2023/03/07 05:03:25;;;;;;;0.10;0.10;;;4.20;99.90;;;;;;5027383;28;20059;-62
2023/03/07 05:05:50;;;;;;;0.10;0.10;;;4.20;99.90;;;;;;5026340;28;20523;-62
2023/03/07 05:08:16;;;;;;;0.10;0.10;;;4.20;99.90;;;;;;5028005;28;20132;-62
2023/03/07 05:10:42;;;;;;;0.10;0.10;;;4.20;99.90;;;;;;5008933;28;20084;-62
2023/03/07 05:13:08;;;;;;;0.10;0.10;;;4.20;99.90;;;;;;5026922;28;20400;-62
2023/03/07 05:15:34;;;;;;;0.10;0.10;;;4.20;99.90;;;;;;5027192;28;20088;-62
2023/03/07 05:18:00;;;;;;;0.10;0.10;;;4.20;99.90;;;;;;5026694;28;20442;-62
2023/03/07 05:20:26;;;;;;;0.10;0.10;;;4.20;99.90;;;;;;5020577;28;20103;-62
2023/03/07 05:22:52;;;;;;;0.10;0.10;;;4.20;99.90;;;;;;5027578;28;20148;-62
2023/03/07 05:25:18;;;;;;;0.08;0.08;;;4.10;99.90;;;;;;5027070;28;20045;-62
2023/03/07 05:27:43;;;;;;;1.00;0.65;;;4.10;99.90;;;;;;5025855;28;20080;-62
2023/03/07 05:30:11;;;;;;;0.10;0.10;;;4.10;99.90;;;;;;5027079;28;20810;-62
2023/03/07 05:32:36;;;;;;;0.10;0.10;;;4.10;99.90;;;;;;5027158;28;20045;-62
2023/03/07 05:35:02;;;;;;;0.10;0.10;;;4.00;99.90;;;;;;5026491;28;20120;-62
2023/03/07 05:37:28;;;;;;;0.10;0.10;;;4.00;99.90;;;;;;5009261;28;20532;-62
2023/03/07 05:39:53;;;;;;;0.10;0.10;;;4.00;99.90;;;;;;5025431;28;20056;-63
2023/03/07 05:42:19;;;;;;;8.10;2.20;;;4.00;99.90;;;;;;5009123;28;20081;-62
2023/03/07 05:44:45;;;;;;;0.10;0.10;;;3.90;99.90;;;;;;5025405;28;20077;-62
2023/03/07 05:47:10;;;;;;;0.10;0.10;;;4.00;99.90;;;;;;5008411;28;20080;-62
2023/03/07 05:49:36;;;;;;;0.10;0.10;;;4.00;99.90;;;;;;5028365;28;20057;-62
2023/03/07 05:52:02;;;;;;;0.10;0.10;;;4.00;99.90;;;;;;5028388;28;20067;-62
2023/03/07 05:54:27;;;;;;;0.10;0.10;;;4.00;99.90;;;;;;5030998;28;20041;-62
2023/03/07 05:56:53;;;;;;;0.10;0.10;;;4.00;99.90;;;;;;5030222;28;20049;-62
2023/03/07 05:59:18;;;;;;;0.10;0.10;;;4.00;99.90;;;;;;5029981;28;20124;-62
2023/03/07 06:01:44;;;;;;;0.10;0.10;;;4.00;99.90;;;;;;5026062;28;20056;-62
2023/03/07 06:04:10;;;;;;;0.10;0.10;;;3.70;99.90;;;;;;5029798;28;20404;-62
2023/03/07 06:06:35;;;;;;;0.10;0.10;;;3.70;99.90;;;;;;5030290;28;20118;-62
2023/03/07 06:09:02;;;;;;;0.13;0.13;;;3.60;99.90;;;;;;5030830;28;20416;-62
2023/03/07 06:11:28;;;;;;;0.10;0.10;;;3.60;99.90;;;;;;5028611;28;20045;-62
2023/03/07 06:13:54;;;;;;;0.10;0.10;;;3.50;99.90;;;;;;5029490;28;20063;-62
2023/03/07 06:16:20;;;;;;;0.10;0.10;;;3.50;99.90;;;;;;5030029;28;20055;-62
2023/03/07 06:18:46;;;;;;;0.00;0.00;;;3.50;99.90;;;;;;5028322;28;20128;-62
2023/03/07 06:21:15;;;;;;;0.40;0.40;;;3.50;99.90;;;;;;5027954;28;20604;-62
2023/03/07 06:23:40;;;;;;;0.10;0.10;;;3.40;99.90;;;;;;5028667;28;20385;-62
2023/03/07 06:26:07;;;;;;;0.10;0.10;;;3.50;99.90;;;;;;5030641;28;20041;-62
2023/03/07 06:28:33;;;;;;;0.10;0.10;;;3.50;99.90;;;;;;5030073;28;20061;-62
2023/03/07 06:30:59;;;;;;;0.10;0.10;;;3.50;99.90;;;;;;5030925;28;20049;-62
2023/03/07 06:33:25;;;;;;;0.10;0.10;;;3.50;99.90;;;;;;5029657;28;20046;-62
2023/03/07 06:35:51;;;;;;;0.10;0.10;;;3.60;99.90;;;;;;5029705;28;20034;-62
2023/03/07 06:38:17;;;;;;;1.20;1.15;;;3.60;99.90;;;;;;5030514;28;20485;-63
2023/03/07 06:40:43;;;;;;;0.10;0.10;;;3.60;99.90;;;;;;5028816;28;20136;-62
2023/03/07 06:43:10;;;;;;;0.10;0.10;;;3.60;99.90;;;;;;5028952;28;20041;-62
2023/03/07 06:45:36;;;;;;;0.10;0.10;;;3.60;99.90;;;;;;5030441;28;20440;-62
2023/03/07 06:48:03;;;;;;;0.20;0.20;;;3.60;99.90;;;;;;5028540;28;20042;-62
2023/03/07 06:50:28;;;;;;;0.10;0.10;;;3.60;99.90;;;;;;5012195;28;20073;-62
2023/03/07 06:52:54;;;;;;;0.10;0.10;;;3.60;99.90;;;;;;5029117;28;20385;-62
2023/03/07 06:55:20;;;;;;;0.10;0.10;;;3.60;99.90;;;;;;5012412;28;20448;-62
2023/03/07 06:57:45;;;;;;;0.10;0.10;;;3.60;99.90;;;;;;5028533;28;20128;-62
2023/03/07 07:00:12;;;;;;;0.10;0.10;;;3.60;99.90;;;;;;5012548;28;20145;-62
2023/03/07 07:02:38;;;;;;;0.10;0.10;;;3.60;99.90;;;;;;5029026;28;20049;-62
2023/03/07 07:05:04;;;;;;;0.10;0.10;;;3.60;99.90;;;;;;5029604;28;20544;-64
2023/03/07 07:07:30;;;;;;;0.10;0.10;;;3.60;99.90;;;;;;5026826;28;20049;-62
2023/03/07 07:09:56;;;;;;;0.10;0.10;;;3.60;99.90;;;;;;5027687;28;20046;-62
2023/03/07 07:12:22;;;;;;;0.10;0.10;;;3.70;99.90;;;;;;5027519;28;20520;-63
2023/03/07 07:14:47;;;;;;;0.10;0.10;;;3.60;99.90;;;;;;5030151;28;20108;-62
2023/03/07 07:17:13;;;;;;;0.10;0.10;;;3.70;99.90;;;;;;5028254;28;20451;-62
2023/03/07 07:19:38;;;;;;;0.10;0.10;;;3.70;99.90;;;;;;5028490;28;20041;-62
2023/03/07 07:22:07;;;;;;;0.10;0.10;;;3.60;99.90;;;;;;5027053;28;20096;-62
2023/03/07 07:24:33;;;;;;;0.15;0.15;;;3.70;99.90;;;;;;5027214;28;20102;-63
2023/03/07 07:26:58;;;;;;;0.10;0.10;;;3.70;99.90;;;;;;5011114;28;20504;-63
2023/03/07 07:29:24;;;;;;;0.10;0.10;;;3.70;99.90;;;;;;5028047;28;20049;-63
2023/03/07 07:31:50;;;;;;;0.10;0.10;;;3.80;99.90;;;;;;5028566;28;20068;-63
2023/03/07 07:34:15;;;;;;;0.10;0.10;;;3.80;99.90;;;;;;5030082;28;20045;-63
2023/03/07 07:36:41;;;;;;;0.10;0.10;;;3.80;99.90;;;;;;5027559;28;20041;-63
2023/03/07 07:39:07;;;;;;;0.25;0.25;;;3.90;99.90;;;;;;5026217;28;20226;-63
2023/03/07 07:41:33;;;;;;;0.10;0.10;;;4.00;99.90;;;;;;5006387;28;20699;-63
2023/03/07 07:43:58;;;;;;;0.10;0.10;;;3.90;99.90;;;;;;5009264;28;20042;-61
2023/03/07 07:46:24;;;;;;;0.10;0.10;;;4.00;99.90;;;;;;5007429;28;20413;-63
2023/03/07 07:48:50;;;;;;;0.10;0.10;;;4.00;99.90;;;;;;5009385;28;20038;-62
2023/03/07 07:51:16;;;;;;;0.65;0.57;;;4.00;99.90;;;;;;5008896;28;20553;-62
2023/03/07 07:53:41;;;;;;;0.10;0.10;;;4.10;99.90;;;;;;5007345;28;20069;-62
2023/03/07 07:56:07;;;;;;;0.10;0.10;;;4.10;99.90;;;;;;5007770;28;20056;-62
2023/03/07 07:58:33;;;;;;;0.10;0.10;;;4.10;99.90;;;;;;5007965;28;20053;-62
2023/03/07 08:00:59;;;;;;;0.10;0.10;;;4.20;99.90;;;;;;5007833;28;20033;-62
2023/03/07 08:03:25;;;;;;;0.20;0.20;;;4.20;99.90;;;;;;5009388;28;20053;-62
2023/03/07 08:05:50;;;;;;;0.10;0.10;;;4.30;99.90;;;;;;5008600;28;20037;-63
2023/03/07 08:08:18;;;;;;;0.10;0.10;;;4.30;99.90;;;;;;5009432;28;20052;-62
2023/03/07 08:10:47;;;;;;;0.55;0.55;;;4.40;99.90;;;;;;5007771;28;20104;-65
2023/03/07 08:13:16;;;;;;;0.10;0.10;;;4.40;99.90;;;;;;5004329;28;20082;-62
2023/03/07 08:15:42;;;;;;;1.75;1.48;;;4.40;99.90;;;;;;5007991;28;20042;-62
2023/03/07 08:18:09;;;;;;;0.20;0.20;;;4.30;99.90;;;;;;5008475;28;20382;-62
2023/03/07 08:20:36;;;;;;;0.35;0.35;;;4.30;99.90;;;;;;5006904;28;20103;-62
2023/03/07 08:23:02;;;;;;;0.10;0.10;;;4.20;99.90;;;;;;5007235;28;20037;-62
2023/03/07 08:25:27;;;;;;;0.10;0.10;;;4.10;99.90;;;;;;5008562;28;20044;-63
2023/03/07 08:27:54;;;;;;;0.10;0.10;;;4.10;99.90;;;;;;5007527;28;20080;-62
2023/03/07 08:30:25;;;;;;;0.10;0.10;;;4.00;99.90;;;;;;5008927;28;20117;-62
2023/03/07 08:32:52;;;;;;;0.10;0.10;;;3.90;99.90;;;;;;5007824;28;20843;-62
2023/03/07 08:35:19;;;;;;;0.10;0.10;;;3.90;99.90;;;;;;5003976;28;20053;-62
2023/03/07 08:37:45;;;;;;;0.10;0.10;;;3.80;99.90;;;;;;5007636;28;20045;-63
2023/03/07 08:40:13;;;;;;;0.10;0.10;;;3.80;99.90;;;;;;5014561;28;20127;-62
2023/03/07 08:42:39;;;;;;;0.10;0.10;;;3.60;99.90;;;;;;5022806;28;20042;-62
2023/03/07 08:45:04;;;;;;;0.13;0.13;;;3.70;99.90;;;;;;5026789;28;20037;-60
2023/03/07 08:47:30;;;;;;;0.10;0.10;;;3.70;99.90;;;;;;5006761;28;20045;-60
2023/03/07 08:49:56;;;;;;;0.10;0.10;;;3.70;99.90;;;;;;5025411;28;20531;-60
2023/03/07 08:52:21;;;;;;;0.10;0.10;;;3.70;99.90;;;;;;5026739;28;20388;-60
2023/03/07 08:54:47;;;;;;;0.10;0.10;;;3.70;99.90;;;;;;5026944;28;20091;-60
2023/03/07 08:57:13;;;;;;;0.30;0.30;;;3.80;99.90;;;;;;5026949;28;20049;-60
2023/03/07 08:59:38;;;;;;;0.85;0.85;;;3.80;99.90;;;;;;5028181;28;20445;-60
2023/03/07 09:02:04;;;;;;;0.13;0.13;;;3.90;99.90;;;;;;5026364;28;20122;-60
2023/03/07 09:04:29;;;;;;;0.10;0.10;;;4.00;99.90;;;;;;5022991;28;20443;-61
2023/03/07 09:06:58;;;;;;;0.10;0.10;;;4.10;99.90;;;;;;5007853;28;20084;-60
2023/03/07 09:09:23;;;;;;;0.10;0.10;;;4.00;99.90;;;;;;5026033;28;20049;-60
2023/03/07 09:11:50;;;;;;;1.77;1.00;;;4.10;99.90;;;;;;5027799;28;20041;-60
2023/03/07 09:14:15;;;;;;;0.10;0.10;;;4.10;99.90;;;;;;5026959;28;20049;-60
2023/03/07 09:16:41;;;;;;;0.00;0.00;;;4.20;99.90;;;;;;5027077;28;20099;-60
2023/03/07 09:19:06;;;;;;;0.10;0.10;;;4.20;99.90;;;;;;5025483;28;20049;-60
2023/03/07 09:21:32;;;;;;;0.10;0.10;;;4.20;99.90;;;;;;5025555;28;20453;-60
2023/03/07 09:23:57;;;;;;;0.10;0.10;;;4.30;99.90;;;;;;5005126;28;20114;-60
2023/03/07 09:26:23;;;;;;;0.10;0.10;;;4.30;99.90;;;;;;5031689;28;20543;-60
2023/03/07 09:28:49;;;;;;;0.10;0.10;;;4.40;99.90;;;;;;5021973;28;20144;-60
2023/03/07 09:31:15;;;;;;;0.10;0.10;;;4.50;99.90;;;;;;5018778;28;20516;-59
2023/03/07 09:33:41;;;;;;;0.10;0.10;;;4.50;99.90;;;;;;5031179;28;20417;-59
2023/03/07 09:36:09;;;;;;;0.10;0.10;;;4.50;99.90;;;;;;5012593;28;20064;-60
2023/03/07 09:38:36;;;;;;;0.10;0.10;;;4.60;99.90;;;;;;5029799;28;20140;-59
2023/03/07 09:41:34;;;;;;;0.10;0.10;;;4.70;99.90;;;;;;5025057;28;20049;-59
2023/03/07 09:44:24;;;;;;;0.10;0.10;;;4.80;99.90;;;;;;5028509;28;20136;-60
2023/03/07 09:47:17;;;;;;;0.10;0.10;;;5.10;99.90;;;;;;5029334;28;20502;-60
2023/03/07 09:49:48;;;;;;;0.28;0.28;;;5.10;99.90;;;;;;5030340;28;20069;-60
2023/03/07 09:52:17;;;;;;;0.10;0.10;;;5.20;99.90;;;;;;5012796;28;20469;-60
2023/03/07 09:55:01;;;;;;;0.10;0.10;;;4.90;99.90;;;;;;5029984;28;20077;-59
2023/03/07 09:57:30;;;;;;;0.10;0.10;;;4.60;99.90;;;;;;5031081;28;20132;-60
2023/03/07 10:00:35;;;;;;;0.10;0.10;;;4.40;99.90;;;;;;5030395;28;20049;-59
2023/03/07 10:03:25;;;;;;;0.10;0.10;;;4.30;99.90;;;;;;5028818;28;20136;-59
2023/03/07 10:05:52;;;;;;;0.10;0.10;;;4.20;99.90;;;;;;5023762;28;20531;-59
2023/03/07 10:08:23;;;;;;;0.10;0.10;;;4.20;99.90;;;;;;5029600;28;20037;-59
2023/03/07 10:11:13;;;;;;;0.10;0.10;;;4.20;99.90;;;;;;5026633;28;20041;-59
2023/03/07 10:13:48;;;;;;;0.10;0.10;;;4.30;99.90;;;;;;5028799;28;20045;-59
2023/03/07 10:16:20;;;;;;;0.10;0.10;;;4.40;99.90;;;;;;5012073;28;20497;-59
2023/03/07 10:19:01;;;;;;;0.10;0.10;;;4.50;99.90;;;;;;5025374;28;20052;-60
2023/03/07 10:21:45;;;;;;;0.10;0.10;;;4.50;99.90;;;;;;5021831;28;20049;-59
2023/03/07 10:25:00;;;;;;;0.10;0.10;;;4.60;99.90;;;;;;5029524;28;20053;-59
2023/03/07 10:27:29;;;;;;;0.13;0.13;;;4.70;99.90;;;;;;5012245;28;20077;-59
2023/03/07 10:29:58;;;;;;;0.10;0.10;;;5.00;99.90;;;;;;5030073;28;20099;-59
2023/03/07 10:32:34;;;;;;;0.10;0.10;;;5.20;99.90;;;;;;5030463;28;20099;-59
2023/03/07 10:35:16;;;;;;;0.10;0.10;;;5.40;99.90;;;;;;5030097;28;20049;-60
2023/03/07 10:38:03;;;;;;;0.20;0.20;;;5.50;99.90;;;;;;5028931;28;20092;-60
2023/03/07 10:40:53;;;;;;;1.20;1.17;;;5.60;99.90;;;;;;5028638;28;20104;-60
2023/03/07 10:43:26;;;;;;;0.10;0.10;;;5.70;99.90;;;;;;5009870;28;20077;-60
2023/03/07 10:46:19;;;;;;;0.10;0.10;;;5.80;99.90;;;;;;5025269;28;20404;-60
2023/03/07 10:48:50;;;;;;;0.10;0.10;;;5.80;99.90;;;;;;5017367;28;20174;-60
2023/03/07 10:51:34;;;;;;;0.10;0.10;;;5.80;99.90;;;;;;5030914;28;20052;-60
2023/03/07 10:54:00;;;;;;;0.05;0.05;;;5.90;99.90;;;;;;5029624;28;20088;-60
2023/03/07 10:56:25;;;;;;;1.15;0.90;;;5.90;99.90;;;;;;5029815;28;20081;-60
2023/03/07 10:59:08;;;;;;;0.10;0.10;;;6.00;99.90;;;;;;5029541;28;20072;-60
2023/03/07 11:01:35;;;;;;;0.10;0.10;;;6.10;99.90;;;;;;5028585;28;20053;-60
2023/03/07 11:04:06;;;;;;;0.10;0.10;;;6.20;99.90;;;;;;5029347;28;20033;-60
2023/03/07 11:06:39;;;;;;;0.10;0.10;;;6.40;99.90;;;;;;5030349;28;20081;-60
2023/03/07 11:09:21;;;;;;;0.10;0.10;;;6.70;99.90;;;;;;5027240;28;20116;-60
2023/03/07 11:11:51;;;;;;;0.73;0.73;;;7.20;99.90;;;;;;5005495;28;20056;-60
2023/03/07 11:14:17;;;;;;;0.10;0.10;;;7.70;99.90;;;;;;5028154;28;20030;-60
2023/03/07 11:16:53;;;;;;;0.10;0.10;;;7.70;99.90;;;;;;5028226;28;20034;-60
2023/03/07 11:19:40;;;;;;;0.10;0.10;;;7.40;99.90;;;;;;5007382;28;20054;-60
2023/03/07 11:22:37;;;;;;;0.10;0.10;;;7.10;99.90;;;;;;5027797;28;20120;-60
2023/03/07 11:25:25;;;;;;;0.10;0.10;;;6.90;99.90;;;;;;5028917;28;20052;-60
2023/03/07 11:27:56;;;;;;;0.00;0.00;;;7.30;99.90;;;;;;5029397;28;20556;-60
2023/03/07 11:30:26;;;;;;;0.10;0.10;;;7.80;99.90;;;;;;5027985;28;20049;-60
2023/03/07 11:32:59;;;;;;;0.10;0.10;;;8.10;99.90;;;;;;5029406;28;20060;-60
2023/03/07 11:36:02;;;;;;;0.10;0.10;;;8.50;99.90;;;;;;5027956;28;20103;-60
2023/03/07 11:38:51;;;;;;;0.47;0.47;;;8.90;99.90;;;;;;5026840;28;20055;-60
2023/03/07 11:41:30;;;;;;;0.10;0.10;;;9.30;99.90;;;;;;5029511;28;20054;-60
2023/03/07 11:44:29;;;;;;;0.10;0.10;;;9.40;99.90;;;;;;5016976;28;20601;-60
2023/03/07 11:47:07;;;;;;;0.10;0.10;;;9.50;99.90;;;;;;5028259;28;20045;-60
2023/03/07 11:50:10;;;;;;;0.10;0.10;;;9.80;99.90;;;;;;5028881;28;20041;-60
2023/03/07 11:53:07;;;;;;;0.28;0.28;;;9.90;99.90;;;;;;5017756;28;20405;-60
2023/03/07 11:55:51;;;;;;;0.10;0.10;;;9.90;99.90;;;;;;5019974;28;20049;-60
2023/03/07 11:58:29;;;;;;;0.10;0.10;;;9.90;99.90;;;;;;5026666;28;20045;-60
2023/03/07 12:00:58;;;;;;;0.10;0.10;;;9.50;99.90;;;;;;5025949;28;20048;-60
2023/03/07 12:03:35;;;;;;;0.10;0.10;;;9.30;99.90;;;;;;5028291;28;20065;-61
2023/03/07 12:06:13;;;;;;;0.25;0.25;;;9.70;99.90;;;;;;5009711;28;20183;-61
2023/03/07 12:08:50;;;;;;;0.03;0.03;;;9.80;99.90;;;;;;5029150;28;20083;-61
2023/03/07 12:11:22;;;;;;;0.10;0.10;;;10.20;99.90;;;;;;5029330;28;20583;-61
2023/03/07 12:14:07;;;;;;;0.30;0.30;;;9.90;99.90;;;;;;5027818;28;20056;-61
2023/03/07 12:16:51;;;;;;;0.10;0.10;;;9.40;99.90;;;;;;5027124;28;20045;-61
2023/03/07 12:19:39;;;;;;;0.10;0.10;;;8.90;99.90;;;;;;5023375;28;20056;-61
2023/03/07 12:22:12;;;;;;;0.10;0.10;;;8.60;99.90;;;;;;5027199;28;20471;-61
2023/03/07 12:24:58;;;;;;;0.10;0.10;;;8.30;99.90;;;;;;5028407;28;20045;-61
2023/03/07 12:27:33;;;;;;;0.10;0.10;;;8.10;99.90;;;;;;5026694;28;20045;-61
2023/03/07 12:30:33;;;;;;;0.10;0.10;;;8.20;99.90;;;;;;5028381;28;20471;-61
2023/03/07 12:32:59;;;;;;;0.10;0.10;;;8.90;99.90;;;;;;4982415;28;20049;-61
2023/03/07 12:35:37;;;;;;;0.08;0.08;;;9.50;99.90;;;;;;5027252;28;20045;-61
2023/03/07 12:38:07;;;;;;;0.10;0.10;;;9.90;99.90;;;;;;5028739;28;20045;-61
2023/03/07 12:40:45;;;;;;;0.10;0.10;;;10.00;99.90;;;;;;5025607;28;20232;-61
2023/03/07 12:43:20;;;;;;;0.10;0.10;;;10.00;99.90;;;;;;5028248;28;20068;-60
2023/03/07 12:46:07;;;;;;;0.00;0.00;;;9.90;99.90;;;;;;5025811;28;20064;-61
2023/03/07 12:48:47;;;;;;;0.10;0.10;;;9.90;99.90;;;;;;5025246;28;20060;-61
2023/03/07 12:51:26;;;;;;;0.10;0.10;;;9.10;99.90;;;;;;5019978;28;20053;-61
2023/03/07 12:54:09;;;;;;;0.10;0.10;;;8.90;99.90;;;;;;5009461;28;20520;-61
2023/03/07 12:57:18;;;;;;;0.13;0.13;;;8.70;99.90;;;;;;5026071;28;20501;-61
2023/03/07 12:59:44;;;;;;;0.10;0.10;;;8.70;99.90;;;;;;5027278;28;20053;-61
2023/03/07 13:02:09;;;;;;;0.00;0.00;;;8.50;99.90;;;;;;5009557;28;20049;-61
2023/03/07 13:04:37;;;;;;;0.52;0.52;;;8.60;99.90;;;;;;5026053;28;20084;-61
2023/03/07 13:07:15;;;;;;;0.10;0.10;;;9.00;99.90;;;;;;5009120;28;20042;-61
2023/03/07 13:09:43;;;;;;;0.10;0.10;;;9.50;99.90;;;;;;5014909;28;21251;-61
2023/03/07 13:12:24;;;;;;;0.10;0.10;;;9.70;99.90;;;;;;5026739;28;20526;-61
2023/03/07 13:14:55;;;;;;;0.10;0.10;;;9.20;99.90;;;;;;5027246;28;20107;-61